LOT1406 LUKK-EPWA
Flight info
| Callsign | LOT1406 |
|---|---|
| Flight time | N/A |
| Altitude | 36000 |
| Route | NUNTA2K NUNTA DCT BUZZE DCT KARIL DCT KENIN/N0454F340 DCT ORTEB DCT KONZI DCT LOGDA LOGDA6U |
| Aircraft | B38M/M-V/N |
Departure
| Time | 2026-05-04 19:46 |
|---|---|
| Airport | Chişinău International Airport (LUKK) |
Arrival
| Time | N/A |
|---|---|
| Airport | Warsaw Chopin Airport (EPWA) |
| Time | Latitude | Longitude | Altitude | Speed | Heading |
|---|---|---|---|---|---|
| 2026-05-04 19:23 | 46.93367 | 28.93542 | 353 ft | 0 kts | 6° |
| 2026-05-04 19:33 | 46.93374 | 28.93543 | 355 ft | 0 kts | 6° |
| 2026-05-04 19:34 | 46.93371 | 28.93543 | 356 ft | 2 kts | 6° |
| 2026-05-04 19:34 | 46.93350 | 28.93540 | 355 ft | 2 kts | 337° |
| 2026-05-04 19:34 | 46.93337 | 28.93552 | 349 ft | 2 kts | 351° |
| 2026-05-04 19:34 | 46.93332 | 28.93555 | 349 ft | 0 kts | 19° |
| 2026-05-04 19:35 | 46.93357 | 28.93541 | 354 ft | 0 kts | 314° |
| 2026-05-04 19:38 | 46.93364 | 28.93531 | 346 ft | 7 kts | 315° |
| 2026-05-04 19:38 | 46.93423 | 28.93432 | 351 ft | 17 kts | 291° |
| 2026-05-04 19:38 | 46.93443 | 28.93223 | 333 ft | 25 kts | 276° |
| 2026-05-04 19:38 | 46.93471 | 28.92949 | 324 ft | 29 kts | 275° |
| 2026-05-04 19:39 | 46.93467 | 28.92665 | 320 ft | 18 kts | 268° |
| 2026-05-04 19:39 | 46.93467 | 28.92502 | 314 ft | 20 kts | 275° |
| 2026-05-04 19:39 | 46.93479 | 28.92266 | 306 ft | 27 kts | 269° |
| 2026-05-04 19:39 | 46.93424 | 28.92036 | 298 ft | 19 kts | 200° |
| 2026-05-04 19:40 | 46.93335 | 28.92039 | 296 ft | 9 kts | 179° |
| 2026-05-04 19:40 | 46.93330 | 28.92040 | 294 ft | 0 kts | 179° |
| 2026-05-04 19:40 | 46.93315 | 28.92040 | 296 ft | 6 kts | 179° |
| 2026-05-04 19:41 | 46.93260 | 28.92038 | 295 ft | 9 kts | 183° |
| 2026-05-04 19:41 | 46.93192 | 28.92019 | 294 ft | 13 kts | 193° |
| 2026-05-04 19:41 | 46.93074 | 28.91992 | 313 ft | 15 kts | 182° |
| 2026-05-04 19:41 | 46.93012 | 28.91991 | 327 ft | 5 kts | 177° |
| 2026-05-04 19:42 | 46.92988 | 28.91993 | 337 ft | 8 kts | 177° |
| 2026-05-04 19:42 | 46.92913 | 28.91996 | 363 ft | 12 kts | 179° |
| 2026-05-04 19:42 | 46.92897 | 28.91997 | 364 ft | 0 kts | 179° |
| 2026-05-04 19:45 | 46.92898 | 28.91997 | 364 ft | 1 kts | 178° |
| 2026-05-04 19:45 | 46.92885 | 28.91997 | 368 ft | 7 kts | 179° |
| 2026-05-04 19:45 | 46.92812 | 28.92006 | 375 ft | 15 kts | 166° |
| 2026-05-04 19:45 | 46.92760 | 28.92261 | 369 ft | 57 kts | 88° |
| 2026-05-04 19:46 | 46.92784 | 28.93303 | 343 ft | 144 kts | 89° |
| 2026-05-04 19:46 | 46.92846 | 28.95032 | 621 ft | 185 kts | 88° |
| 2026-05-04 19:46 | 46.92918 | 28.96948 | 1293 ft | 192 kts | 82° |
| 2026-05-04 19:46 | 46.93125 | 28.98843 | 2108 ft | 186 kts | 84° |
| 2026-05-04 19:47 | 46.93677 | 29.00359 | 2862 ft | 166 kts | 34° |
| 2026-05-04 19:47 | 46.94761 | 29.00469 | 3533 ft | 163 kts | 338° |
| 2026-05-04 19:47 | 46.95546 | 28.99321 | 4122 ft | 161 kts | 312° |
| 2026-05-04 19:47 | 46.96253 | 28.97936 | 4709 ft | 177 kts | 311° |
| 2026-05-04 19:48 | 46.97014 | 28.96428 | 5318 ft | 195 kts | 311° |
| 2026-05-04 19:48 | 46.97924 | 28.94631 | 5421 ft | 244 kts | 309° |
| 2026-05-04 19:48 | 46.98582 | 28.92128 | 5941 ft | 278 kts | 286° |
| 2026-05-04 19:48 | 46.98917 | 28.89291 | 6943 ft | 286 kts | 282° |
| 2026-05-04 19:49 | 46.99173 | 28.86371 | 8013 ft | 291 kts | 282° |
| 2026-05-04 19:49 | 46.99394 | 28.83442 | 9099 ft | 295 kts | 282° |
| 2026-05-04 19:49 | 46.99596 | 28.80398 | 10186 ft | 299 kts | 281° |
| 2026-05-04 19:49 | 46.99781 | 28.77350 | 11158 ft | 304 kts | 281° |
| 2026-05-04 19:50 | 46.99973 | 28.74240 | 12106 ft | 309 kts | 281° |
| 2026-05-04 19:50 | 47.00175 | 28.71122 | 13052 ft | 314 kts | 281° |
| 2026-05-04 19:50 | 47.00394 | 28.67905 | 13967 ft | 320 kts | 281° |
| 2026-05-04 19:50 | 47.00630 | 28.64600 | 14828 ft | 324 kts | 281° |
| 2026-05-04 19:51 | 47.00873 | 28.61340 | 15653 ft | 328 kts | 281° |
| 2026-05-04 19:51 | 47.01135 | 28.57996 | 16524 ft | 332 kts | 281° |
| 2026-05-04 19:51 | 47.01411 | 28.54616 | 17371 ft | 336 kts | 281° |
| 2026-05-04 19:51 | 47.01704 | 28.51149 | 18244 ft | 340 kts | 281° |
| 2026-05-04 19:52 | 47.02001 | 28.47741 | 18978 ft | 344 kts | 281° |
| 2026-05-04 19:52 | 47.02311 | 28.44257 | 19708 ft | 347 kts | 281° |
| 2026-05-04 19:52 | 47.02631 | 28.40733 | 20431 ft | 350 kts | 281° |
| 2026-05-04 19:52 | 47.02960 | 28.37174 | 21152 ft | 354 kts | 281° |
| 2026-05-04 19:53 | 47.03298 | 28.33590 | 21873 ft | 357 kts | 281° |
| 2026-05-04 19:53 | 47.03644 | 28.29976 | 22588 ft | 360 kts | 281° |
| 2026-05-04 19:53 | 47.03996 | 28.26327 | 23285 ft | 364 kts | 281° |
| 2026-05-04 19:53 | 47.04358 | 28.22636 | 23922 ft | 367 kts | 281° |
| 2026-05-04 19:54 | 47.04725 | 28.18920 | 24474 ft | 370 kts | 281° |
| 2026-05-04 19:54 | 47.05098 | 28.15171 | 25056 ft | 373 kts | 281° |
| 2026-05-04 19:54 | 47.05476 | 28.11404 | 25631 ft | 376 kts | 281° |
| 2026-05-04 19:54 | 47.05861 | 28.07601 | 26181 ft | 378 kts | 281° |
| 2026-05-04 19:55 | 47.06252 | 28.03767 | 26730 ft | 381 kts | 281° |
| 2026-05-04 19:55 | 47.06650 | 27.99906 | 27264 ft | 384 kts | 281° |
| 2026-05-04 19:55 | 47.07054 | 27.96017 | 27802 ft | 387 kts | 281° |
| 2026-05-04 19:55 | 47.07464 | 27.92107 | 28322 ft | 390 kts | 281° |
| 2026-05-04 19:56 | 47.07881 | 27.88156 | 28836 ft | 393 kts | 281° |
| 2026-05-04 19:56 | 47.08307 | 27.84150 | 29045 ft | 404 kts | 281° |
| 2026-05-04 19:56 | 47.08754 | 27.79995 | 29060 ft | 420 kts | 281° |
| 2026-05-04 19:56 | 47.09221 | 27.75679 | 29052 ft | 436 kts | 281° |
| 2026-05-04 19:57 | 47.09703 | 27.71208 | 29061 ft | 451 kts | 281° |
| 2026-05-04 19:57 | 47.10200 | 27.66587 | 29059 ft | 467 kts | 281° |
| 2026-05-04 19:57 | 47.10717 | 27.61800 | 29059 ft | 483 kts | 281° |